Resums METAR propers

 

KSJC - San Jose, California, USA
Distància des de l'estació: NE 14km
Actualització: 17/08/2018 13:53 UTC
Mist, Tapat
Mist, Tapat
 Vent del calm
Vent: Calma
Temperatura: 16°C
Rosada: 13°C
Humitat: 83%
Baròmetre: 1018.3 hPa
Resum: Mist
Nuvolositat: Tapat
Visibilitat: 10 km
Detalls nuvolositat: Alguns núvols 30 m
Molt cobert 274 m
Tapat 366 m
2018/08/17 13:53 KSJC 171353Z 00000KT 6SM BR FEW001 BKN009 OVC012 16/13 A3007 RMK AO2 SLP181 T01560133 $
KNUQ - Moffett Nas/Mtn, California, USA
Distància des de l'estació: N 14km
Actualització: 17/08/2018 13:56 UTC
Tapat
Tapat
 Vent del calm
Vent: Calma
Temperatura: 16°C
Rosada: 13°C
Humitat: 83%
Baròmetre: 1018.6 hPa
Nuvolositat: Tapat
Visibilitat: 13 km
Detalls nuvolositat: Tapat 335 m
2018/08/17 13:56 KNUQ 171356Z 00000KT 8SM OVC011 16/13 A3008 RMK AO2 SLP187 T01560133 $
 
KPAO - Palo Alto, California, USA
Distància des de l'estació: NNO 23km
Actualització: 17/08/2018 13:47 UTC
Tapat
Tapat
 Vent del calm
Vent: Calma
Temperatura: 16°C
Rosada: 14°C
Humitat: 88%
Baròmetre: 1018.6 hPa
Nuvolositat: Tapat
Visibilitat: 13 km
Detalls nuvolositat: Tapat 335 m
2018/08/17 13:47 KPAO 171347Z 00000KT 8SM OVC011 16/14 A3008
KRHV - San Jose/Reid, California, USA
Distància des de l'estació: ENE 19km
Actualització: 17/08/2018 13:47 UTC
Mist, Tapat
Mist, Tapat
 Vent del calm
Vent: Calma
Temperatura: 16°C
Rosada: 14°C
Humitat: 88%
Baròmetre: 1017.6 hPa
Resum: Mist
Nuvolositat: Tapat
Visibilitat: 5 km
Detalls nuvolositat: Tapat 274 m
2018/08/17 13:47 KRHV 171347Z 00000KT 3SM BR OVC009 16/14 A3005
 
KOAK - Oakland, California, USA
Distància des de l'estació: NNO 50km
Actualització: 17/08/2018 13:53 UTC
Mist, Tapat
Mist, Tapat
 Vent del calm
Vent: Calma
Temperatura: 14°C
Rosada: 13°C
Humitat: 94%
Baròmetre: 1018.3 hPa
Resum: Mist
Nuvolositat: Tapat
Visibilitat: 6 km
Detalls nuvolositat: Tapat 274 m
2018/08/17 13:53 KOAK 171353Z 00000KT 4SM BR OVC009 14/13 A3007 RMK AO2 SLP182 T01440128
KSQL - San Carlos Airpo, California, USA
Distància des de l'estació: NO 34km
Actualització: 17/08/2018 14:00 UTC
Parcialment cobert
Parcialment cobert
 Vent del SSO
Vent: SSO 7 km/h
Temperatura: 15°C
Rosada: 13°C
Humitat: 88%
Baròmetre: 1018.3 hPa
Nuvolositat: Parcialment cobert
Visibilitat: 13 km
Detalls nuvolositat: Parcialment cobert 335 m
2018/08/17 14:00 KSQL 171400Z AUTO 20004KT 8SM SCT011 15/13 A3007 RMK AO2
 
KSFO - San Francisco, California, USA
Distància des de l'estació: NO 49km
Actualització: 17/08/2018 13:56 UTC
Molt cobert
Molt cobert
 Vent del ONO
Vent: ONO 11 km/h
Temperatura: 14°C
Rosada: 12°C
Humitat: 88%
Baròmetre: 1018.3 hPa
Nuvolositat: Molt cobert
Visibilitat: 16 km
Detalls nuvolositat: Alguns núvols 183 m
Molt cobert 305 m
2018/08/17 13:56 KSFO 171356Z 29006KT 10SM FEW006 BKN010 14/12 A3007 RMK AO2 SLP182 T01440117 $
KE16 - San Martin, California, USA
Distància des de l'estació: ESE 43km
Actualització: 17/08/2018 14:00 UTC
Mist, Seré
Mist, Seré
 Vent del NO
Vent: NO 7 km/h
Temperatura: 15°C
Rosada: 13°C
Humitat: 88%
Baròmetre: 1019 hPa
Resum: Mist
Nuvolositat: Seré
Visibilitat: 8 km
2018/08/17 14:00 KE16 171400Z AUTO 32004KT 5SM BR CLR 15/13 A3009 RMK AO2
 
KWVI - Watsonville, California, USA
Distància des de l'estació: SSE 44km
Actualització: 17/08/2018 13:53 UTC
Mist, Seré
Mist, Seré
 Vent del calm
Vent: Calma
Temperatura: 12°C
Rosada: 11°C
Humitat: 94%
Baròmetre: 1018.3 hPa
Resum: Mist
Nuvolositat: Seré
Visibilitat: 10 km
2018/08/17 13:53 KWVI 171353Z AUTO 00000KT 6SM BR CLR 12/11 A3007 RMK AO2 SLP183 T01170111 $
KHAF - Half Moon Bay, California, USA
Distància des de l'estació: ONO 50km
Actualització: 17/08/2018 14:40 UTC
Mist, Tapat
Mist, Tapat
 Vent del ONO
Vent: ONO 7 km/h
Temperatura: 14°C
Rosada: 12°C
Humitat: 88%
Baròmetre: 1019 hPa
Resum: Mist
Nuvolositat: Tapat
Visibilitat: 8 km
Detalls nuvolositat: Tapat 244 m
2018/08/17 14:40 KHAF 171440Z AUTO 30004KT 5SM BR OVC008 14/12 A3009 RMK AO2
 
KHWD - Hayward, California, USA
Distància des de l'estació: N 44km
Actualització: 17/08/2018 13:54 UTC
Tapat
Tapat
 Vent del NO
Vent: NO 7 km/h
Temperatura: 16°C
Rosada: 13°C
Humitat: 83%
Baròmetre: 1018.3 hPa
Nuvolositat: Tapat
Visibilitat: 13 km
Detalls nuvolositat: Tapat 305 m
2018/08/17 13:54 KHWD 171354Z 32004KT 8SM OVC010 16/13 A3007 RMK AO2 SLP191 T01610128
KLVK - Livermore, California, USA
Distància des de l'estació: NNE 51km
Actualització: 17/08/2018 13:53 UTC
Mist, Seré
Mist, Seré
 Vent del NNO
Vent: NNO 6 km/h
Temperatura: 14°C
Rosada: 12°C
Humitat: 88%
Baròmetre: 1017.9 hPa
Resum: Mist
Nuvolositat: Seré
Visibilitat: 8 km
2018/08/17 13:53 KLVK 171353Z 33003KT 5SM BR CLR 14/12 A3006 RMK AO2 SLP176 T01390122